Airfield :
LOGIN :

Register | Disclaimer

   EN    FR    IT 

 










Legend :    VFR   Marginal VFR   IFR   Intensive IFR   Very Intensive IFR
Visi :
Ceiling :
>= 8 km
>= 3000ft
5 to 8 km
1000 to 3000 ft
1500m to 5 km
500 to 1000 ft
800 to 1500m
200 to 500 ft
< 800m
< 200 ft
Symbols :   Thunderstorms  Fog  Heavy snow  Heavy precipitations  Wind > 20 kt
SIGMETs :     Misc.  Thunderstorms  Icing  Turbulence  Mountain Waves  Volcanic Ashes







- Airport Elevation : 84 ft
- Download approach charts


LFBC - Cazaux

CURRENT METAR :
  • 231800Z AUTO 00000KT CAVOK 12/11 Q1013 NOSIG

EXPIRED METARs :
  • 231730Z AUTO 14002KT CAVOK 12/09 Q1013 NOSIG
  • 231700Z AUTO 00000KT CAVOK 13/10 Q1013 NOSIG
  • 231630Z AUTO 00000KT CAVOK 15/10 Q1013 NOSIG
  • 231600Z AUTO 19003KT CAVOK 17/11 Q1013 NOSIG
  • 231530Z AUTO 20003KT CAVOK 18/11 Q1013 NOSIG

TAF TAF LFBC
Valid from the 23 at 15:00 until the 24 at 15:00 UTC


231400Z 2315/2415 20005KT CAVOK
TEMPO 2406/2409 20010G25KT
No reported NOTAMs for that airfield.



MET'MAP, your aeronautical weather chart ! - Copyright ORBIFLY December 2007 - Disclaimer

ORBIFLY MET'MAP TEAM :

Programming & Development : Alexandra Zaïnal
Concept & Development : Baudouin d'Aumeries
Co-Development & Prog : Marc-Olivier Méhu
Technical & hardware support : Manuel Goepfert

Contact : metmap@orbifly.com




SOURCES & CREDITS :

   NOAA